Harmon, Illinois
Current Conditions -  °F | °C
As of 7:35 PM on Tuesday 25 Nov 2014 (Local Time) from KSQI Reporting Station
Clear Clear  
Wind Chill:   Ceiling: Unl
Heat Index: 12°   Visibility: 7mi
Dew Point:   Wind: 6mph
Humidity: 79%   Direction: 150°SSE
Pressure: 30.16"   Gusts: NA
Location:  41.72°N, 89.55°W
Report Text: KSQI 260135Z 15005KT 7SM CLR M11/M14 A3016 RMK AO1
Loading
Personal Weather Stations






























Interactive Weather Map New forecast layout! Learn more

10-Day Weather Forecast

Advertisements
Track Severe Weather on mobile